Time;durP1;ratioP1;P1;durP2;ratioP2;P2;SDS_P1;SDS_P2;PMS_P1;PMS_P2;Temp;Humidity;BMP_temperature;BMP_pressure;BME280_temperature;BME280_humidity;BME280_pressure;Samples;Min_cycle;Max_cycle;Signal;HPM_P1;HPM_P2
2021/04/21 00:01:17;;;;;;;5.43;4.00;;;16.80;53.90;;;;;;5054822;28;20490;-81
2021/04/21 00:03:44;;;;;;;5.40;3.47;;;16.80;53.90;;;;;;5051362;28;20037;-81
2021/04/21 00:06:13;;;;;;;5.65;4.28;;;16.80;54.00;;;;;;5042283;28;20029;-81
2021/04/21 00:08:39;;;;;;;5.03;3.70;;;16.70;53.90;;;;;;5070252;28;20036;-81
2021/04/21 00:11:05;;;;;;;5.03;3.80;;;16.70;54.00;;;;;;5051288;28;20549;-81
2021/04/21 00:13:32;;;;;;;5.40;3.72;;;16.70;54.00;;;;;;5056971;28;20025;-82
2021/04/21 00:15:58;;;;;;;5.28;3.88;;;16.60;54.00;;;;;;5054083;28;20032;-80
2021/04/21 00:18:24;;;;;;;5.35;3.95;;;16.60;54.00;;;;;;5031797;28;20029;-82
2021/04/21 00:21:01;;;;;;;5.55;3.83;;;16.60;54.10;;;;;;5036203;28;20097;-81
2021/04/21 00:23:28;;;;;;;4.80;3.47;;;16.50;54.20;;;;;;5036871;28;20489;-78
2021/04/21 00:25:56;;;;;;;5.45;3.90;;;16.50;54.10;;;;;;5036131;28;20091;-80
2021/04/21 00:28:26;;;;;;;5.50;3.97;;;16.50;54.10;;;;;;5044066;28;20089;-80
2021/04/21 00:30:54;;;;;;;4.80;3.80;;;16.40;54.10;;;;;;5066820;28;20120;-81
2021/04/21 00:33:22;;;;;;;5.60;4.10;;;16.40;54.20;;;;;;5066022;28;20056;-80
2021/04/21 00:35:51;;;;;;;5.30;3.78;;;16.30;54.20;;;;;;5047007;28;20021;-85
2021/04/21 00:38:19;;;;;;;6.10;4.10;;;16.30;54.30;;;;;;5062211;28;20025;-80
2021/04/21 00:40:45;;;;;;;5.82;3.70;;;16.30;54.30;;;;;;5053735;28;20035;-80
2021/04/21 00:43:26;;;;;;;6.25;3.67;;;16.20;54.20;;;;;;5061428;28;20020;-81
2021/04/21 00:46:11;;;;;;;5.22;3.75;;;16.20;54.30;;;;;;5049647;28;20036;-80
2021/04/21 00:49:09;;;;;;;5.35;3.75;;;16.10;54.30;;;;;;5054747;28;20058;-81
2021/04/21 00:51:46;;;;;;;5.03;3.70;;;16.10;54.30;;;;;;5061550;28;20051;-81
2021/04/21 00:54:32;;;;;;;5.78;3.92;;;16.10;54.40;;;;;;5066403;28;20131;-80
2021/04/21 00:57:22;;;;;;;5.53;3.92;;;16.00;54.40;;;;;;5054494;28;20120;-80
2021/04/21 01:00:13;;;;;;;5.88;4.00;;;16.00;54.40;;;;;;5051886;28;20481;-81
2021/04/21 01:03:08;;;;;;;5.07;3.78;;;15.90;54.50;;;;;;5054225;28;20093;-81
2021/04/21 01:05:50;;;;;;;5.70;3.63;;;15.90;54.50;;;;;;5060971;28;20435;-84
2021/04/21 01:08:22;;;;;;;5.97;4.30;;;15.80;54.60;;;;;;5042842;28;20021;-81
2021/04/21 01:11:02;;;;;;;5.68;3.53;;;15.70;54.50;;;;;;5045088;28;20473;-81
2021/04/21 01:13:35;;;;;;;5.40;3.60;;;15.70;54.60;;;;;;5059305;28;20025;-81
2021/04/21 01:16:03;;;;;;;6.20;4.13;;;15.70;54.60;;;;;;5069394;28;20159;-82
2021/04/21 01:18:31;;;;;;;5.35;3.85;;;15.70;54.70;;;;;;5075525;28;20048;-83
2021/04/21 01:21:07;;;;;;;5.50;3.97;;;15.60;54.60;;;;;;5045182;28;20047;-81
2021/04/21 01:23:57;;;;;;;5.78;4.10;;;15.60;54.70;;;;;;5063944;28;20025;-80
2021/04/21 01:26:47;;;;;;;6.18;4.07;;;15.60;54.80;;;;;;5043705;28;20044;-81
2021/04/21 01:29:36;;;;;;;5.38;3.85;;;15.50;54.80;;;;;;5028564;28;20082;-81
2021/04/21 01:32:23;;;;;;;6.30;4.32;;;15.50;54.80;;;;;;5053590;28;20504;-81
2021/04/21 01:34:51;;;;;;;5.30;3.67;;;15.40;54.80;;;;;;5043717;28;20039;-81
2021/04/21 01:37:21;;;;;;;6.03;4.32;;;15.40;54.80;;;;;;5032470;28;20024;-81
2021/04/21 01:39:55;;;;;;;5.20;3.78;;;15.30;54.80;;;;;;5052891;28;20075;-81
2021/04/21 01:42:26;;;;;;;5.60;4.18;;;15.30;54.90;;;;;;5029989;28;20057;-82
2021/04/21 01:44:55;;;;;;;5.60;4.00;;;15.30;54.90;;;;;;5055847;28;20032;-81
2021/04/21 01:47:22;;;;;;;6.30;4.65;;;15.30;54.90;;;;;;5055950;28;20028;-81
2021/04/21 01:49:59;;;;;;;6.93;4.65;;;15.20;55.50;;;;;;5041933;28;20055;-83
2021/04/21 01:52:50;;;;;;;6.55;4.90;;;15.20;55.00;;;;;;5041848;28;20033;-81
2021/04/21 01:55:19;;;;;;;5.93;4.18;;;15.10;55.00;;;;;;5021196;28;20434;-80
2021/04/21 01:57:50;;;;;;;5.93;4.68;;;15.10;55.00;;;;;;5050297;28;20020;-80
2021/04/21 02:00:40;;;;;;;7.20;5.25;;;15.00;55.00;;;;;;5049594;28;20486;-80
2021/04/21 02:03:22;;;;;;;7.32;4.88;;;15.00;55.20;;;;;;5035764;28;20028;-80
2021/04/21 02:06:14;;;;;;;6.13;4.55;;;15.00;55.10;;;;;;5044047;28;20519;-86
2021/04/21 02:09:10;;;;;;;6.05;4.65;;;14.90;55.20;;;;;;5028713;28;20480;-81
2021/04/21 02:11:47;;;;;;;6.25;4.35;;;14.90;55.20;;;;;;5046381;28;20036;-81
2021/04/21 02:14:32;;;;;;;6.30;4.38;;;14.80;55.10;;;;;;5046337;28;20024;-81
2021/04/21 02:17:09;;;;;;;6.90;4.75;;;14.80;55.30;;;;;;5036064;28;20456;-82
2021/04/21 02:19:47;;;;;;;6.07;4.38;;;14.70;55.20;;;;;;5052646;28;20085;-81
2021/04/21 02:22:35;;;;;;;7.85;4.55;;;14.70;55.20;;;;;;5039442;28;20040;-81
2021/04/21 02:25:11;;;;;;;5.47;4.38;;;14.60;55.30;;;;;;5035377;28;20054;-82
2021/04/21 02:28:03;;;;;;;6.72;4.93;;;14.60;55.30;;;;;;5049052;28;20040;-80
2021/04/21 02:31:06;;;;;;;6.95;4.70;;;14.60;55.40;;;;;;5062234;28;20143;-80
2021/04/21 02:33:58;;;;;;;5.97;4.10;;;14.50;55.40;;;;;;5059997;28;20032;-80
2021/04/21 02:36:32;;;;;;;5.70;4.53;;;14.50;55.30;;;;;;5044096;28;20033;-80
2021/04/21 02:39:06;;;;;;;5.80;4.45;;;14.40;55.40;;;;;;5069658;28;20029;-81
2021/04/21 02:42:06;;;;;;;7.07;4.80;;;14.40;55.40;;;;;;5060049;28;20036;-80
2021/04/21 02:44:47;;;;;;;6.28;4.63;;;14.30;55.50;;;;;;5053364;28;20287;-80
2021/04/21 02:47:22;;;;;;;5.70;4.25;;;14.30;55.50;;;;;;5054194;28;20021;-80
2021/04/21 02:50:00;;;;;;;5.68;4.43;;;14.30;55.50;;;;;;5071185;28;20041;-81
2021/04/21 02:52:38;;;;;;;6.32;4.38;;;14.20;55.50;;;;;;5061064;28;20059;-81
2021/04/21 02:55:26;;;;;;;6.55;4.38;;;14.20;55.60;;;;;;5071133;28;20078;-84
2021/04/21 02:58:07;;;;;;;6.10;4.60;;;14.20;55.70;;;;;;5055088;28;20025;-81
2021/04/21 03:01:02;;;;;;;6.57;4.38;;;14.10;55.60;;;;;;5061471;28;20028;-81
2021/04/21 03:03:54;;;;;;;7.18;5.45;;;14.10;55.70;;;;;;5065228;28;20031;-82
2021/04/21 03:06:24;;;;;;;6.63;4.60;;;14.00;55.80;;;;;;5055599;28;20017;-79
2021/04/21 03:09:05;;;;;;;6.82;4.88;;;14.00;55.70;;;;;;5059787;28;20029;-79
2021/04/21 03:11:31;;;;;;;6.70;4.72;;;13.90;55.80;;;;;;5053003;28;20036;-79
2021/04/21 03:14:18;;;;;;;8.90;5.07;;;13.90;55.90;;;;;;5025540;28;20025;-79
2021/04/21 03:16:50;;;;;;;7.57;5.72;;;13.90;56.00;;;;;;5059785;28;20028;-89
2021/04/21 03:19:21;;;;;;;6.70;4.97;;;13.90;56.60;;;;;;5052956;28;20052;-81
2021/04/21 03:22:04;;;;;;;6.93;5.18;;;13.80;56.00;;;;;;5063500;28;20087;-81
2021/04/21 03:24:37;;;;;;;7.13;5.05;;;13.80;56.10;;;;;;5055086;28;20037;-81
2021/04/21 03:27:05;;;;;;;6.50;5.07;;;13.80;56.10;;;;;;5062163;28;20090;-81
2021/04/21 03:29:45;;;;;;;6.65;5.00;;;13.80;56.10;;;;;;5062274;28;20051;-82
2021/04/21 03:32:20;;;;;;;7.30;5.57;;;13.70;56.20;;;;;;5063215;28;20033;-81
2021/04/21 03:34:49;;;;;;;6.95;5.47;;;13.70;56.10;;;;;;5043357;28;20021;-87
2021/04/21 03:37:53;;;;;;;7.80;5.20;;;13.70;56.20;;;;;;5085385;28;20539;-81
2021/04/21 03:40:19;;;;;;;6.78;4.97;;;13.60;56.30;;;;;;5026418;28;20052;-82
2021/04/21 03:42:46;;;;;;;6.85;5.05;;;13.60;56.20;;;;;;5030349;28;20377;-82
2021/04/21 03:45:13;;;;;;;7.60;5.18;;;13.60;56.30;;;;;;5049323;28;20035;-82
2021/04/21 03:47:39;;;;;;;7.63;5.50;;;13.60;56.40;;;;;;5055408;28;20028;-83
2021/04/21 03:50:08;;;;;;;6.40;5.28;;;13.60;56.50;;;;;;5069333;28;20024;-81
2021/04/21 03:52:38;;;;;;;7.68;5.50;;;13.60;56.50;;;;;;5060195;28;20025;-82
2021/04/21 03:55:06;;;;;;;7.72;5.45;;;13.50;56.50;;;;;;5053315;28;20017;-82
2021/04/21 03:57:36;;;;;;;7.45;5.35;;;13.50;56.50;;;;;;5053147;28;20024;-82
2021/04/21 04:00:04;;;;;;;7.05;5.20;;;13.50;56.60;;;;;;5053388;28;20039;-86
2021/04/21 04:02:33;;;;;;;6.75;5.43;;;13.50;56.60;;;;;;5071606;28;20042;-79
2021/04/21 04:05:02;;;;;;;7.13;5.30;;;13.50;56.70;;;;;;5053262;28;20027;-80
2021/04/21 04:07:32;;;;;;;8.20;5.63;;;13.40;56.70;;;;;;5063534;28;20078;-79
2021/04/21 04:10:03;;;;;;;7.30;5.40;;;13.40;56.70;;;;;;5053507;28;20013;-81
2021/04/21 04:12:32;;;;;;;7.55;5.50;;;13.40;56.80;;;;;;5035078;28;20056;-79
2021/04/21 04:15:01;;;;;;;7.10;5.55;;;13.40;56.80;;;;;;5042954;28;20025;-79
2021/04/21 04:17:29;;;;;;;7.85;5.50;;;13.40;56.80;;;;;;5047814;28;20494;-78
2021/04/21 04:19:59;;;;;;;7.63;5.65;;;13.40;56.80;;;;;;5071106;28;20024;-80
2021/04/21 04:22:30;;;;;;;7.13;5.07;;;13.40;56.80;;;;;;5047628;28;20039;-79
2021/04/21 04:24:57;;;;;;;6.38;4.88;;;13.30;56.80;;;;;;5045285;28;20064;-80
2021/04/21 04:27:26;;;;;;;7.07;5.20;;;13.30;56.80;;;;;;5012715;28;20500;-83
2021/04/21 04:29:53;;;;;;;7.38;6.13;;;13.40;56.90;;;;;;5022228;28;20036;-85
2021/04/21 04:32:21;;;;;;;7.00;5.07;;;13.30;56.90;;;;;;5032298;28;20103;-80
2021/04/21 04:34:49;;;;;;;7.78;5.85;;;13.30;56.90;;;;;;5032555;28;20021;-79
2021/04/21 04:37:19;;;;;;;7.13;5.32;;;13.30;57.00;;;;;;5034524;28;20037;-80
2021/04/21 04:39:45;;;;;;;7.30;5.53;;;13.30;57.10;;;;;;5034690;28;20033;-78
2021/04/21 04:42:12;;;;;;;8.05;5.78;;;13.30;57.00;;;;;;5018869;28;20140;-79
2021/04/21 04:44:43;;;;;;;7.28;5.38;;;13.20;57.00;;;;;;5014181;28;20056;-77
2021/04/21 04:47:20;;;;;;;7.70;5.30;;;13.20;57.00;;;;;;5023004;28;20092;-80
2021/04/21 04:50:08;;;;;;;8.65;5.80;;;13.20;57.00;;;;;;5018609;28;20025;-78
2021/04/21 04:52:40;;;;;;;7.53;5.60;;;13.20;57.10;;;;;;5023299;28;20048;-81
2021/04/21 04:55:08;;;;;;;7.53;6.00;;;13.20;57.10;;;;;;5030557;28;20029;-80
2021/04/21 04:57:38;;;;;;;7.15;5.70;;;13.10;57.00;;;;;;5034290;28;20100;-82
2021/04/21 05:00:07;;;;;;;6.40;5.40;;;13.10;57.10;;;;;;5021666;28;20029;-80
2021/04/21 05:03:13;;;;;;;9.73;6.63;;;13.10;57.10;;;;;;5023424;28;20032;-80
2021/04/21 05:05:39;;;;;;;;;;;13.10;57.30;;;;;;4971068;28;20037;-79
2021/04/21 05:08:13;;;;;;;6.72;5.13;;;13.10;57.00;;;;;;5012455;28;19916;-80
2021/04/21 05:11:01;;;;;;;8.02;5.90;;;13.00;57.00;;;;;;5028419;28;20029;-80
2021/04/21 05:13:30;;;;;;;9.18;6.22;;;13.00;57.20;;;;;;5046510;28;20033;-80
2021/04/21 05:15:55;;;;;;;7.40;5.55;;;13.00;57.20;;;;;;5011745;28;20427;-84
2021/04/21 05:18:36;;;;;;;7.03;5.80;;;12.90;57.20;;;;;;5035428;28;20093;-82
2021/04/21 05:21:19;;;;;;;9.13;6.03;;;12.90;57.30;;;;;;5018129;28;20094;-82
2021/04/21 05:24:10;;;;;;;7.43;5.85;;;12.90;57.40;;;;;;5025717;28;20051;-80
2021/04/21 05:27:06;;;;;;;8.13;6.53;;;12.90;57.40;;;;;;5024710;28;20036;-82
2021/04/21 05:30:02;;;;;;;8.77;5.90;;;12.90;57.40;;;;;;5036854;28;20117;-81
2021/04/21 05:33:25;;;;;;;7.38;5.65;;;12.80;57.40;;;;;;5020130;28;20037;-81
2021/04/21 05:36:15;;;;;;;8.00;5.85;;;12.80;57.40;;;;;;5022041;28;20029;-81
2021/04/21 05:38:59;;;;;;;8.20;6.22;;;12.80;57.50;;;;;;5033548;28;20465;-81
2021/04/21 05:41:43;;;;;;;7.78;6.20;;;12.80;57.40;;;;;;5036632;28;20040;-84
2021/04/21 05:45:03;;;;;;;7.38;6.38;;;12.70;57.40;;;;;;5017235;28;20088;-80
2021/04/21 05:47:58;;;;;;;7.93;6.25;;;12.70;57.60;;;;;;5036681;28;20079;-81
2021/04/21 05:50:36;;;;;;;7.28;6.03;;;12.70;57.60;;;;;;5055575;28;20036;-81
2021/04/21 05:53:07;;;;;;;8.43;6.43;;;12.70;57.60;;;;;;5030087;28;20266;-82
2021/04/21 05:55:55;;;;;;;7.97;6.63;;;12.70;57.60;;;;;;5035427;28;20022;-82
2021/04/21 05:59:05;;;;;;;8.18;6.45;;;12.70;57.70;;;;;;5039760;28;20021;-82
2021/04/21 06:01:35;;;;;;;8.27;6.43;;;12.60;57.70;;;;;;5005924;28;20494;-81
2021/04/21 06:04:01;;;;;;;9.82;6.55;;;12.70;57.60;;;;;;5021713;28;20040;-82
2021/04/21 06:06:27;;;;;;;8.52;6.50;;;12.60;57.60;;;;;;5006988;28;20034;-82
2021/04/21 06:08:53;;;;;;;9.95;7.43;;;12.70;57.70;;;;;;5036711;28;20257;-82
2021/04/21 06:11:22;;;;;;;8.25;7.00;;;12.70;57.80;;;;;;5023309;28;20424;-82
2021/04/21 06:13:59;;;;;;;8.05;6.65;;;12.60;57.80;;;;;;5036919;28;20427;-81
2021/04/21 06:16:26;;;;;;;8.98;6.72;;;12.70;57.90;;;;;;5020406;28;20021;-82
2021/04/21 06:19:00;;;;;;;8.55;7.05;;;12.60;57.90;;;;;;5007718;28;20500;-82
2021/04/21 06:21:29;;;;;;;8.70;7.00;;;12.70;58.00;;;;;;5030906;28;20069;-82
2021/04/21 06:23:56;;;;;;;8.13;6.43;;;12.70;58.00;;;;;;5038203;28;20400;-82
2021/04/21 06:26:32;;;;;;;8.95;7.15;;;12.70;58.00;;;;;;5054285;28;20144;-82
2021/04/21 06:28:58;;;;;;;8.18;6.60;;;12.70;58.10;;;;;;5058134;28;20036;-83
2021/04/21 06:31:32;;;;;;;8.25;6.82;;;12.70;58.00;;;;;;5059976;28;20047;-82
2021/04/21 06:33:58;;;;;;;8.40;6.75;;;12.70;58.10;;;;;;5062750;28;20036;-81
2021/04/21 06:36:31;;;;;;;8.20;6.70;;;12.70;58.00;;;;;;5055042;28;20028;-82
2021/04/21 06:38:57;;;;;;;9.13;7.35;;;12.70;58.10;;;;;;5062333;28;20036;-81
2021/04/21 06:41:24;;;;;;;10.75;7.07;;;12.70;58.10;;;;;;5052849;28;20041;-82
2021/04/21 06:43:50;;;;;;;8.80;7.07;;;12.70;58.10;;;;;;5039969;28;20020;-81
2021/04/21 06:46:19;;;;;;;8.55;6.70;;;12.80;58.10;;;;;;5068450;28;20043;-81
2021/04/21 06:48:51;;;;;;;7.90;6.25;;;12.80;58.10;;;;;;5053460;28;20033;-80
2021/04/21 06:51:18;;;;;;;7.68;6.25;;;12.80;58.20;;;;;;5057813;28;20033;-83
2021/04/21 06:53:45;;;;;;;7.45;6.07;;;12.80;58.10;;;;;;5034006;28;20028;-81
2021/04/21 06:56:12;;;;;;;8.55;7.10;;;12.80;58.10;;;;;;5054574;28;20024;-82
2021/04/21 06:58:39;;;;;;;8.10;6.57;;;12.80;58.10;;;;;;5052730;28;20021;-83
2021/04/21 07:01:15;;;;;;;7.97;5.88;;;12.80;58.10;;;;;;5072980;28;20451;-86
2021/04/21 07:03:42;;;;;;;9.40;6.75;;;12.80;58.20;;;;;;5072677;28;20029;-82
2021/04/21 07:06:08;;;;;;;7.60;6.13;;;12.80;58.10;;;;;;5062330;28;20020;-84
2021/04/21 07:08:37;;;;;;;7.40;6.00;;;12.90;58.20;;;;;;5073021;28;20036;-83
2021/04/21 07:11:06;;;;;;;7.65;6.32;;;12.90;58.20;;;;;;5055408;28;20036;-83
2021/04/21 07:13:47;;;;;;;9.15;7.22;;;12.90;58.30;;;;;;5056113;28;20469;-84
2021/04/21 07:16:22;;;;;;;8.13;6.40;;;12.90;58.30;;;;;;5055801;28;20025;-84
2021/04/21 07:18:51;;;;;;;9.13;6.45;;;12.90;58.30;;;;;;5043821;28;20021;-87
2021/04/21 07:21:18;;;;;;;8.70;6.80;;;12.90;58.30;;;;;;5040582;28;20127;-85
2021/04/21 07:23:53;;;;;;;7.75;6.25;;;13.00;58.40;;;;;;5055210;28;20120;-83
2021/04/21 07:26:26;;;;;;;8.40;6.53;;;12.90;58.40;;;;;;5051357;28;20465;-85
2021/04/21 07:28:52;;;;;;;8.27;6.70;;;13.00;58.40;;;;;;5062384;28;20024;-85
2021/04/21 07:31:18;;;;;;;9.30;7.05;;;13.00;58.30;;;;;;5050419;28;20094;-85
2021/04/21 07:33:46;;;;;;;7.95;6.57;;;13.00;58.30;;;;;;5062248;28;20457;-83
2021/04/21 07:36:45;;;;;;;8.40;6.60;;;13.00;59.00;;;;;;5039823;28;20025;-85
2021/04/21 07:39:20;;;;;;;7.53;6.00;;;13.10;58.50;;;;;;5066059;28;20035;-83
2021/04/21 07:41:49;;;;;;;9.80;7.10;;;13.10;58.20;;;;;;5055817;28;20040;-84
2021/04/21 07:44:37;;;;;;;8.05;6.07;;;13.10;58.90;;;;;;5052212;28;20032;-84
2021/04/21 07:47:06;;;;;;;7.70;6.45;;;13.10;58.40;;;;;;5035882;28;20128;-85
2021/04/21 07:49:36;;;;;;;7.97;6.70;;;13.20;58.30;;;;;;5040840;28;20031;-81
2021/04/21 07:52:03;;;;;;;7.50;6.60;;;13.10;58.20;;;;;;5022775;28;20041;-81
2021/04/21 07:54:30;;;;;;;7.38;6.20;;;13.20;58.30;;;;;;5055595;28;20085;-83
2021/04/21 07:57:07;;;;;;;9.07;6.82;;;13.20;58.30;;;;;;5029286;28;20025;-81
2021/04/21 07:59:35;;;;;;;8.48;6.70;;;13.20;58.30;;;;;;5051869;28;20024;-81
2021/04/21 08:02:13;;;;;;;8.43;6.60;;;13.30;58.30;;;;;;5034815;28;20029;-83
2021/04/21 08:05:07;;;;;;;9.07;7.03;;;13.30;58.40;;;;;;5048031;28;20102;-83
2021/04/21 08:07:39;;;;;;;8.77;6.55;;;13.30;58.50;;;;;;5048729;28;20040;-83
2021/04/21 08:10:29;;;;;;;8.00;6.60;;;13.30;58.40;;;;;;5054937;28;20029;-84
2021/04/21 08:12:58;;;;;;;8.48;6.35;;;13.30;58.40;;;;;;5059227;28;20032;-81
2021/04/21 08:15:43;;;;;;;7.55;6.05;;;13.40;58.30;;;;;;5071537;28;20027;-82
2021/04/21 08:18:09;;;;;;;7.95;6.38;;;13.40;58.40;;;;;;5062764;28;20028;-83
2021/04/21 08:20:39;;;;;;;7.88;6.50;;;13.40;58.20;;;;;;5054828;28;20052;-83
2021/04/21 08:23:08;;;;;;;8.60;7.03;;;13.50;58.20;;;;;;5058968;28;20084;-78
2021/04/21 08:25:34;;;;;;;8.48;6.70;;;13.50;58.20;;;;;;5051678;28;20076;-81
2021/04/21 08:28:01;;;;;;;8.70;6.82;;;13.50;58.20;;;;;;5071153;28;20078;-81
2021/04/21 08:30:28;;;;;;;8.85;6.88;;;13.60;58.20;;;;;;5050775;28;20039;-81
2021/04/21 08:32:54;;;;;;;8.32;6.60;;;13.60;58.10;;;;;;5054720;28;20469;-81
2021/04/21 08:35:20;;;;;;;8.05;6.50;;;13.70;58.10;;;;;;5046091;28;20031;-82
2021/04/21 08:37:46;;;;;;;7.82;6.38;;;13.70;58.00;;;;;;5036632;28;20031;-80
2021/04/21 08:40:15;;;;;;;8.60;7.05;;;13.80;58.00;;;;;;5064587;28;20459;-83
2021/04/21 08:42:42;;;;;;;7.68;6.47;;;13.80;57.90;;;;;;5034232;28;20032;-81
2021/04/21 08:45:12;;;;;;;8.13;6.32;;;13.90;57.90;;;;;;5054520;28;20029;-81
2021/04/21 08:47:41;;;;;;;8.98;6.90;;;14.00;57.90;;;;;;5051390;28;20025;-84
2021/04/21 08:50:10;;;;;;;8.15;6.68;;;14.00;57.80;;;;;;5031926;28;20473;-81
2021/04/21 08:53:00;;;;;;;8.43;6.55;;;14.10;57.80;;;;;;5054998;28;20056;-81
2021/04/21 08:55:27;;;;;;;8.60;6.50;;;14.10;57.70;;;;;;5037069;28;20028;-80
2021/04/21 08:57:54;;;;;;;8.35;6.53;;;14.20;57.60;;;;;;5030077;28;20465;-80
2021/04/21 09:00:21;;;;;;;7.70;6.43;;;14.30;57.60;;;;;;5050682;28;20048;-80
2021/04/21 09:02:47;;;;;;;8.43;6.60;;;14.30;57.50;;;;;;5054442;28;20484;-80
2021/04/21 09:05:15;;;;;;;9.23;6.75;;;14.40;57.60;;;;;;5051264;28;20033;-83
2021/04/21 09:07:41;;;;;;;8.18;6.28;;;14.50;57.60;;;;;;5032333;28;20028;-80
2021/04/21 09:10:08;;;;;;;8.68;6.40;;;14.50;57.50;;;;;;5040041;28;20025;-80
2021/04/21 09:12:35;;;;;;;8.40;6.57;;;14.60;57.50;;;;;;5054207;28;20048;-80
2021/04/21 09:15:01;;;;;;;7.53;5.82;;;14.70;57.50;;;;;;5065018;28;20024;-80
2021/04/21 09:17:27;;;;;;;8.57;6.22;;;14.70;57.40;;;;;;5043156;28;20116;-83
2021/04/21 09:19:54;;;;;;;7.53;5.55;;;14.80;57.40;;;;;;5029228;28;20483;-81
2021/04/21 09:22:20;;;;;;;7.40;5.80;;;14.90;57.40;;;;;;5044349;28;20095;-80
2021/04/21 09:24:58;;;;;;;7.03;5.88;;;14.90;57.30;;;;;;5011318;28;20390;-80
2021/04/21 09:27:33;;;;;;;10.02;6.80;;;15.00;57.40;;;;;;5024861;28;20091;-80
2021/04/21 09:30:10;;;;;;;7.45;5.78;;;15.10;57.30;;;;;;5005407;28;20022;-80
2021/04/21 09:32:49;;;;;;;6.97;5.53;;;15.20;57.40;;;;;;5018469;28;20080;-80
2021/04/21 09:35:18;;;;;;;7.43;5.78;;;15.30;57.40;;;;;;5018278;28;20079;-82
2021/04/21 09:37:44;;;;;;;7.25;5.45;;;15.40;57.30;;;;;;5015581;28;20029;-80
2021/04/21 09:40:10;;;;;;;7.20;5.60;;;15.40;57.20;;;;;;5001905;28;20029;-82
2021/04/21 09:42:38;;;;;;;7.00;5.65;;;15.50;57.10;;;;;;5001567;28;20026;-80
2021/04/21 09:45:06;;;;;;;7.15;5.43;;;15.60;57.10;;;;;;5035887;28;20111;-80
2021/04/21 09:47:33;;;;;;;6.68;5.18;;;15.70;57.10;;;;;;5021327;28;20025;-80
2021/04/21 09:50:02;;;;;;;7.20;5.35;;;15.70;57.10;;;;;;5001012;28;20410;-79
2021/04/21 09:52:29;;;;;;;8.32;5.70;;;15.80;57.00;;;;;;5044738;28;20031;-80
2021/04/21 09:54:57;;;;;;;6.50;5.28;;;15.90;57.50;;;;;;5021287;28;20032;-81
2021/04/21 09:57:31;;;;;;;6.53;5.00;;;16.00;56.80;;;;;;5055167;28;20017;-81
2021/04/21 10:00:02;;;;;;;7.03;4.60;;;16.00;56.70;;;;;;5024913;28;20033;-80
2021/04/21 10:02:41;;;;;;;6.60;4.65;;;16.10;56.60;;;;;;5035361;28;20052;-81
2021/04/21 10:05:33;;;;;;;6.45;4.72;;;16.20;56.80;;;;;;5031816;28;20032;-80
2021/04/21 10:08:16;;;;;;;6.53;4.72;;;16.30;56.80;;;;;;5029178;28;20021;-80
2021/04/21 10:10:47;;;;;;;6.88;4.65;;;16.40;56.60;;;;;;5020344;28;20041;-81
2021/04/21 10:13:20;;;;;;;7.07;5.05;;;16.50;56.40;;;;;;5017528;28;20037;-81
2021/04/21 10:15:49;;;;;;;6.18;4.57;;;16.50;56.30;;;;;;5032597;28;20025;-80
2021/04/21 10:18:16;;;;;;;6.40;4.55;;;16.60;56.20;;;;;;5021150;28;20058;-81
2021/04/21 10:20:44;;;;;;;5.72;4.45;;;16.70;56.20;;;;;;5017006;28;20099;-83
2021/04/21 10:23:12;;;;;;;6.55;4.70;;;16.70;56.30;;;;;;5006951;28;20021;-81
2021/04/21 10:25:42;;;;;;;6.00;4.47;;;16.80;56.20;;;;;;5052861;28;20056;-80
2021/04/21 10:28:09;;;;;;;6.40;4.53;;;16.90;56.20;;;;;;5032958;28;20026;-80
2021/04/21 10:30:36;;;;;;;7.05;4.90;;;16.90;56.20;;;;;;5000619;28;20026;-82
2021/04/21 10:33:02;;;;;;;6.97;5.30;;;17.10;56.40;;;;;;5048082;28;20072;-83
2021/04/21 10:35:29;;;;;;;6.63;5.28;;;17.10;56.20;;;;;;5029754;28;20091;-81
2021/04/21 10:37:56;;;;;;;6.45;4.70;;;17.20;56.30;;;;;;5014243;28;20030;-80
2021/04/21 10:40:27;;;;;;;6.93;5.30;;;17.30;56.20;;;;;;5012542;28;20577;-80
2021/04/21 10:43:06;;;;;;;7.00;4.95;;;17.40;56.10;;;;;;5031182;28;20040;-79
2021/04/21 10:45:44;;;;;;;6.63;5.05;;;17.40;56.00;;;;;;5020736;28;20024;-81
2021/04/21 10:48:10;;;;;;;6.78;4.90;;;17.50;55.90;;;;;;5018024;28;20167;-83
2021/04/21 10:50:48;;;;;;;6.25;4.88;;;17.60;55.90;;;;;;5023231;28;20533;-84
2021/04/21 10:53:43;;;;;;;6.45;5.28;;;17.70;55.90;;;;;;5007193;28;20025;-80
2021/04/21 10:56:36;;;;;;;5.87;4.73;;;17.80;56.10;;;;;;5021978;28;20132;-79
2021/04/21 10:59:03;;;;;;;5.90;4.40;;;17.90;56.10;;;;;;5012887;28;20284;-77
2021/04/21 11:01:34;;;;;;;7.25;5.30;;;18.00;55.90;;;;;;5015691;28;20095;-77
2021/04/21 11:04:00;;;;;;;6.40;4.63;;;18.00;56.00;;;;;;5035191;28;20044;-76
2021/04/21 11:06:45;;;;;;;5.70;4.68;;;18.10;56.00;;;;;;5015686;28;20036;-77
2021/04/21 11:09:13;;;;;;;6.13;4.68;;;18.20;56.20;;;;;;5041051;28;20049;-78
2021/04/21 11:11:48;;;;;;;6.38;5.22;;;18.30;56.00;;;;;;5030842;28;20443;-78
2021/04/21 11:14:15;;;;;;;;;;;18.40;56.20;;;;;;5021567;28;20033;-81
2021/04/21 11:16:42;;;;;;;6.18;4.40;;;18.50;56.10;;;;;;5002431;28;19909;-82
2021/04/21 11:19:14;;;;;;;7.03;5.22;;;18.60;56.50;;;;;;5018559;28;20111;-78
2021/04/21 11:21:40;;;;;;;7.32;5.70;;;18.60;56.60;;;;;;5004092;28;20037;-81
2021/04/21 11:24:06;;;;;;;8.30;6.40;;;18.70;56.60;;;;;;5000042;28;20056;-80
2021/04/21 11:26:46;;;;;;;9.10;6.93;;;18.80;56.80;;;;;;5032602;28;20056;-78
2021/04/21 11:29:28;;;;;;;9.15;7.13;;;18.90;56.90;;;;;;5052527;28;20079;-77
2021/04/21 11:31:54;;;;;;;8.95;6.88;;;19.00;56.80;;;;;;5060731;28;20036;-79
2021/04/21 11:34:34;;;;;;;8.68;6.80;;;19.10;56.80;;;;;;5059037;28;20028;-81
2021/04/21 11:37:10;;;;;;;9.15;6.85;;;19.10;56.80;;;;;;5065369;28;20052;-81
2021/04/21 11:39:42;;;;;;;8.57;6.55;;;19.20;56.60;;;;;;5049475;28;20125;-78
2021/04/21 11:42:33;;;;;;;8.18;6.32;;;19.30;56.70;;;;;;5067070;28;20054;-79
2021/04/21 11:45:02;;;;;;;8.55;6.80;;;19.30;56.60;;;;;;5067698;28;20060;-79
2021/04/21 11:47:39;;;;;;;8.52;6.28;;;19.40;56.50;;;;;;5045671;28;20032;-83
2021/04/21 11:50:23;;;;;;;7.80;5.85;;;19.50;56.40;;;;;;5053697;28;20024;-79
2021/04/21 11:53:14;;;;;;;7.78;6.18;;;19.50;56.30;;;;;;5062861;28;20079;-79
2021/04/21 11:58:22;;;;;;;7.90;5.57;;;19.70;56.10;;;;;;5058927;28;20465;-79
2021/04/21 12:00:59;;;;;;;8.43;6.07;;;19.70;55.90;;;;;;5071591;28;20113;-79
2021/04/21 12:03:29;;;;;;;7.60;5.80;;;19.80;55.90;;;;;;5065500;28;20118;-79
2021/04/21 12:06:00;;;;;;;7.45;5.88;;;19.80;55.90;;;;;;5044368;28;20036;-79
2021/04/21 12:08:31;;;;;;;7.07;5.53;;;19.90;55.90;;;;;;5065358;28;20070;-79
2021/04/21 12:10:59;;;;;;;7.38;5.90;;;19.90;55.80;;;;;;5039736;28;20037;-79
2021/04/21 12:13:31;;;;;;;9.02;6.25;;;19.90;55.70;;;;;;5057022;28;20390;-80
2021/04/21 12:15:56;;;;;;;8.00;6.13;;;19.90;55.60;;;;;;5054380;28;20587;-79
2021/04/21 12:18:27;;;;;;;8.73;7.03;;;20.00;55.50;;;;;;5051341;28;20107;-80
2021/04/21 12:20:55;;;;;;;9.95;7.47;;;20.10;55.40;;;;;;5052833;28;20090;-79
2021/04/21 12:23:29;;;;;;;9.55;7.60;;;20.10;55.20;;;;;;5042538;28;20453;-80
2021/04/21 12:25:54;;;;;;;9.55;7.93;;;20.20;55.10;;;;;;5053424;28;20132;-79
2021/04/21 12:28:20;;;;;;;9.05;7.60;;;20.20;55.00;;;;;;5005478;28;20127;-79
2021/04/21 12:30:58;;;;;;;10.82;8.07;;;20.20;54.80;;;;;;5001800;28;20033;-78
2021/04/21 12:33:24;;;;;;;9.77;7.85;;;20.20;54.80;;;;;;5005239;28;20017;-79
2021/04/21 12:35:55;;;;;;;9.95;7.97;;;20.20;54.70;;;;;;5014280;28;20033;-79
2021/04/21 12:38:29;;;;;;;8.45;6.97;;;20.20;54.70;;;;;;5014199;28;20036;-79
2021/04/21 12:40:56;;;;;;;9.27;6.68;;;20.30;54.80;;;;;;4994656;28;20130;-79
2021/04/21 12:43:33;;;;;;;8.85;7.10;;;20.30;54.70;;;;;;5001705;28;20032;-79
2021/04/21 12:46:20;;;;;;;8.05;6.38;;;20.30;54.60;;;;;;5022461;28;20378;-80
2021/04/21 12:48:48;;;;;;;8.38;6.57;;;20.30;54.60;;;;;;5033955;28;20047;-79
2021/04/21 12:51:21;;;;;;;7.65;6.07;;;20.30;54.50;;;;;;5022247;28;20035;-80
2021/04/21 12:53:48;;;;;;;8.57;6.38;;;20.40;54.50;;;;;;5022036;28;20481;-80
2021/04/21 12:56:14;;;;;;;7.72;5.72;;;20.40;54.50;;;;;;5025993;28;20026;-79
2021/04/21 12:58:42;;;;;;;8.18;5.72;;;20.40;54.50;;;;;;5000855;28;20032;-79
2021/04/21 13:01:13;;;;;;;7.57;5.50;;;20.40;54.40;;;;;;5018519;28;20042;-81
2021/04/21 13:03:53;;;;;;;7.75;5.70;;;20.50;54.40;;;;;;5016562;28;20585;-80
2021/04/21 13:06:33;;;;;;;6.68;5.10;;;20.50;54.20;;;;;;5013990;28;20041;-79
2021/04/21 13:09:29;;;;;;;7.43;4.88;;;20.50;54.20;;;;;;5036633;28;20055;-79
2021/04/21 13:12:00;;;;;;;6.53;4.50;;;20.50;54.20;;;;;;5020156;28;20041;-79
2021/04/21 13:14:36;;;;;;;6.05;4.25;;;20.50;54.00;;;;;;5046518;28;20500;-82
2021/04/21 13:17:02;;;;;;;5.78;3.97;;;20.50;54.00;;;;;;5018732;28;20150;-80
2021/04/21 13:19:30;;;;;;;6.15;4.13;;;20.60;53.90;;;;;;5008698;28;20021;-79
2021/04/21 13:22:02;;;;;;;5.88;3.60;;;20.60;53.70;;;;;;5018359;28;20042;-79
2021/04/21 13:24:29;;;;;;;4.68;3.40;;;20.60;53.70;;;;;;5021264;28;20051;-83
2021/04/21 13:26:58;;;;;;;6.38;3.70;;;20.60;53.70;;;;;;5037918;28;20079;-83